SPQU/AQP METAR and TAF weather

Enter ICAO airport designator
Station Type Date Time Source
SPQU METAR 2022/12/08 13:00 UTC NOAA

SPQU 081300Z 24005KT 190V290 9999 FEW120 15/10 Q1025 NOSIG RMK PP000


Station Type Date Time Source
SPQU Decoded METAR 2022/12/08 13:00 UTC NOAA

Arequipa, Peru (SPQU) 16-19S 071-33W 2539M
Dec 08, 2022 - 08:00 AM EST / 2022.12.08 1300 UTC
Wind: from the WSW (240 degrees) at 6 MPH (5 KT) (direction variable):0
Visibility: greater than 7 mile(s):0
Sky conditions: mostly clear
Temperature: 59 F (15 C)
Dew Point: 50 F (10 C)
Relative Humidity: 72%
Pressure (altimeter): 30.27 in. Hg (1025 hPa)
ob: SPQU 081300Z 24005KT 190V290 9999 FEW120 15/10 Q1025 NOSIG RMK PP000
cycle: 13

Station Type Date Time Source
SPQU TAF 2022/12/08 12:34 UTC NOAA

TAF SPQU 081112Z 0812/0912 20004KT 9999 FEW060 SCT120 TX20/0817Z TN11/0910Z
BECMG 0814/0816 26011KT
FM082100 27008KT 9999 SCT020 BKN050
FM090130 05004KT 9000 SCT040 BKN090
TEMPO 0902/0904 RA

Example: see airport list